Omaha — WDC9423 — position and weather

sailwx.info

Track history (hours):
 
Tides and Currents Weather Stations Pressure Air Temp Water Temp Dewpoint Dewpoint Depression Visibility Wind Speed Wind Dir Waves Ship Positions

Omaha

Owner: Turn services, Inc, New Orleans, LA. More information available from US FCC via Universal Licensing System and Coast Guard Vessel Documentation Center.

Last reported at 2015-May-27 11:18 UTC. Time now 2015-May-27 13:59 UTC.
Position N 29°55' W 089°56'.

Length 13 m; draft 3.5 m.

Type: Pilot. MMSI: 367102030.

Date/timePositionNaut miles runAvg speedWind from/ knotsBaromVisibWave heightAir tempDewpointWater temp
2015-May-27 11:18N 29°55' W 089°56'0 0.0
2015-May-27 10:18N 29°55' W 089°56'0 0.1
2015-May-27 05:27N 29°55' W 089°56'0 0.4
2015-May-27 04:22N 29°55' W 089°57'0 0.0
2015-May-27 03:30N 29°55' W 089°57'0 0.0
2015-May-27 02:27N 29°55' W 089°57'0 0.0
2015-May-27 01:28N 29°55' W 089°57'1 0.5
2015-May-27 00:11N 29°55' W 089°56'0 0.2
2015-May-26 23:18N 29°55' W 089°56'0 0.0
2015-May-26 22:20N 29°55' W 089°56'0 0.1
2015-May-26 21:16N 29°55' W 089°56'4 5.8
2015-May-26 20:33N 29°57' W 090°00'2 2.2
2015-May-26 19:33N 29°56' W 089°58'3 3.1
2015-May-26 18:33N 29°57' W 090°01'3 2.8
2015-May-26 17:33N 29°56' W 089°58'2 1.5
2015-May-26 16:27N 29°56' W 089°60'3 3.2
2015-May-26 15:33N 29°55' W 089°57'2 1.8
2015-May-26 14:14N 29°56' W 089°59'1 1.5
2015-May-26 13:33N 29°57' W 090°00'2 1.8
2015-May-26 12:29N 29°56' W 089°58'2 2.1
2015-May-26 11:24N 29°55' W 089°56'1 0.5
2015-May-26 10:11N 29°55' W 089°56'1 0.1
2015-May-25 23:15N 29°55' W 089°56'0 0.1
2015-May-25 19:03N 29°55' W 089°56'0 0.0
2015-May-25 16:18N 29°55' W 089°56'7 5.8
2015-May-25 15:06N 29°57' W 090°04'6 0.4
2015-May-25 01:26N 29°57' W 090°10'4 3.9
2015-May-25 00:32N 29°55' W 090°07'6 5.8
2015-May-24 23:33N 29°57' W 090°01'5 4.5
2015-May-24 22:29N 29°55' W 089°56'1 1.2
2015-May-24 21:16N 29°55' W 089°57'2 2.2
2015-May-24 20:27N 29°56' W 089°59'3 3.1
2015-May-24 19:28N 29°55' W 089°56'0 0.0
2015-May-24 18:18N 29°55' W 089°56'0 0.1
2015-May-24 17:30N 29°55' W 089°56'0 0.0
2015-May-24 11:33N 29°55' W 089°56'0 0.0
2015-May-24 10:33N 29°55' W 089°56'0 0.2
2015-May-24 08:33N 29°55' W 089°56'0 0.0
2015-May-23 17:15N 29°55' W 089°56'0 0.1
2015-May-23 11:30N 29°55' W 089°56'1 0.3
2015-May-23 09:19N 29°55' W 089°56'1 0.1
2015-May-23 04:30N 29°55' W 089°56'3 3.1
2015-May-23 03:29N 29°56' W 089°59'2 1.7
2015-May-23 02:27N 29°55' W 089°57'1 1.5
2015-May-23 01:33N 29°56' W 089°59'2 2.1
2015-May-23 00:33N 29°55' W 089°56'0 0.0
2015-May-22 04:32N 29°55' W 089°56'0 0.0
2015-May-22 03:29N 29°55' W 089°56'3 3.1
2015-May-22 02:24N 29°57' W 090°00'4 3.9
2015-May-22 01:28N 29°55' W 089°56'0 0.3
2015-May-22 00:08N 29°55' W 089°57'1 1.3
2015-May-21 23:31N 29°55' W 089°56'1 0.6
2015-May-21 22:17N 29°55' W 089°57'0 0.3
2015-May-21 20:30N 29°55' W 089°56'1 0.6
2015-May-21 19:28N 29°55' W 089°57'0 0.0
2015-May-21 02:23N 29°55' W 089°57'0 0.0
2015-May-21 01:26N 29°55' W 089°57'1 1.3
2015-May-21 00:21N 29°56' W 089°58'2 2.0
2015-May-20 23:13N 29°55' W 089°56'0 0.0
2015-May-20 22:27N 29°55' W 089°56'0 0.1
2015-May-20 20:33N 29°55' W 089°56'0 0.1
2015-May-20 15:11N 29°55' W 089°56'4 5.9
2015-May-20 14:32N 29°57' W 090°00'4 1.4
2015-May-20 11:32N 29°55' W 089°56'0 0.0
2015-May-20 10:32N 29°55' W 089°56'0 0.0
2015-May-20 09:30N 29°55' W 089°56'0 0.4
2015-May-20 08:32N 29°55' W 089°56'0 0.2
2015-May-20 06:16N 29°55' W 089°56'3 1.6
2015-May-20 04:32N 29°56' W 089°59'2 2.0
2015-May-20 03:29N 29°55' W 089°56'0 0.0
2015-May-20 02:33N 29°55' W 089°56'1 0.3
2015-May-20 00:23N 29°55' W 089°56'0 0.0
2015-May-19 16:14N 29°55' W 089°56'0 0.0
2015-May-19 15:33N 29°55' W 089°56'0 0.0
2015-May-19 14:24N 29°55' W 089°56'0 0.0
2015-May-19 13:11N 29°55' W 089°56'0 0.0
2015-May-19 12:24N 29°55' W 089°56'0 0.0
2015-May-19 11:24N 29°55' W 089°56'0 0.0
2015-May-19 10:26N 29°55' W 089°56'0 0.0
2015-May-19 09:25N 29°55' W 089°56'0 0.0
2015-May-19 08:21N 29°55' W 089°56'0 0.0
2015-May-19 07:31N 29°55' W 089°56'0 0.0
2015-May-19 06:27N 29°55' W 089°56'0 0.0
2015-May-19 05:17N 29°55' W 089°56'0 0.0
2015-May-19 04:21N 29°55' W 089°56'0 0.0
2015-May-19 03:27N 29°55' W 089°56'0 0.0
2015-May-19 02:32N 29°55' W 089°56'0 0.0
2015-May-19 01:33N 29°55' W 089°56'0 0.0
2015-May-19 00:31N 29°55' W 089°56'0 0.0
2015-May-18 23:33N 29°55' W 089°56'0 0.0
2015-May-18 22:32N 29°55' W 089°56'0 0.0
2015-May-18 21:33N 29°55' W 089°56'0 0.0
2015-May-18 20:31N 29°55' W 089°56'0 0.0
2015-May-18 19:28N 29°55' W 089°56'0 0.0
2015-May-18 18:25N 29°55' W 089°56'0 0.0
2015-May-18 17:20N 29°55' W 089°56'0 0.0
2015-May-17 20:30N 29°55' W 089°56'0 0.0
2015-May-17 19:15N 29°55' W 089°56'0 0.0
2015-May-17 18:27N 29°55' W 089°56'0 0.0
2015-May-17 17:12N 29°55' W 089°56'0 0.0
2015-May-17 16:27N 29°55' W 089°56'0 0.0
2015-May-17 15:23N 29°55' W 089°56'0 0.0
2015-May-17 14:30N 29°55' W 089°56'0 0.0
2015-May-17 13:33N 29°55' W 089°56'0 0.0
2015-May-17 12:34N 29°55' W 089°56'0 0.0
2015-May-17 11:28N 29°55' W 089°56'  
Track history (hours):
 
Tides and Currents Weather Stations Pressure Air Temp Water Temp Dewpoint Dewpoint Depression Visibility Wind Speed Wind Dir Waves Ship Positions

Omaha

Owner: Turn services, Inc, New Orleans, LA. More information available from US FCC via Universal Licensing System and Coast Guard Vessel Documentation Center.

Last reported at 2015-May-27 11:18 UTC. Time now 2015-May-27 13:59 UTC.
Position N 29°55' W 089°56'.

Length 13 m; draft 3.5 m.

Type: Pilot. MMSI: 367102030.

Date/timePositionNaut miles runAvg speedWind from/ knotsBaromVisibWave heightAir tempDewpointWater temp
2015-May-27 11:18N 29°55' W 089°56'0 0.0
2015-May-27 10:18N 29°55' W 089°56'0 0.1
2015-May-27 05:27N 29°55' W 089°56'0 0.4
2015-May-27 04:22N 29°55' W 089°57'0 0.0
2015-May-27 03:30N 29°55' W 089°57'0 0.0
2015-May-27 02:27N 29°55' W 089°57'0 0.0
2015-May-27 01:28N 29°55' W 089°57'1 0.5
2015-May-27 00:11N 29°55' W 089°56'0 0.2
2015-May-26 23:18N 29°55' W 089°56'0 0.0
2015-May-26 22:20N 29°55' W 089°56'0 0.1
2015-May-26 21:16N 29°55' W 089°56'4 5.8
2015-May-26 20:33N 29°57' W 090°00'2 2.2
2015-May-26 19:33N 29°56' W 089°58'3 3.1
2015-May-26 18:33N 29°57' W 090°01'3 2.8
2015-May-26 17:33N 29°56' W 089°58'2 1.5
2015-May-26 16:27N 29°56' W 089°60'3 3.2
2015-May-26 15:33N 29°55' W 089°57'2 1.8
2015-May-26 14:14N 29°56' W 089°59'1 1.5
2015-May-26 13:33N 29°57' W 090°00'2 1.8
2015-May-26 12:29N 29°56' W 089°58'2 2.1
2015-May-26 11:24N 29°55' W 089°56'1 0.5
2015-May-26 10:11N 29°55' W 089°56'1 0.1
2015-May-25 23:15N 29°55' W 089°56'0 0.1
2015-May-25 19:03N 29°55' W 089°56'0 0.0
2015-May-25 16:18N 29°55' W 089°56'7 5.8
2015-May-25 15:06N 29°57' W 090°04'6 0.4
2015-May-25 01:26N 29°57' W 090°10'4 3.9
2015-May-25 00:32N 29°55' W 090°07'6 5.8
2015-May-24 23:33N 29°57' W 090°01'5 4.5
2015-May-24 22:29N 29°55' W 089°56'1 1.2
2015-May-24 21:16N 29°55' W 089°57'2 2.2
2015-May-24 20:27N 29°56' W 089°59'3 3.1
2015-May-24 19:28N 29°55' W 089°56'0 0.0
2015-May-24 18:18N 29°55' W 089°56'0 0.1
2015-May-24 17:30N 29°55' W 089°56'0 0.0
2015-May-24 11:33N 29°55' W 089°56'0 0.0
2015-May-24 10:33N 29°55' W 089°56'0 0.2
2015-May-24 08:33N 29°55' W 089°56'0 0.0
2015-May-23 17:15N 29°55' W 089°56'0 0.1
2015-May-23 11:30N 29°55' W 089°56'1 0.3
2015-May-23 09:19N 29°55' W 089°56'1 0.1
2015-May-23 04:30N 29°55' W 089°56'3 3.1
2015-May-23 03:29N 29°56' W 089°59'2 1.7
2015-May-23 02:27N 29°55' W 089°57'1 1.5
2015-May-23 01:33N 29°56' W 089°59'2 2.1
2015-May-23 00:33N 29°55' W 089°56'0 0.0
2015-May-22 04:32N 29°55' W 089°56'0 0.0
2015-May-22 03:29N 29°55' W 089°56'3 3.1
2015-May-22 02:24N 29°57' W 090°00'4 3.9
2015-May-22 01:28N 29°55' W 089°56'0 0.3
2015-May-22 00:08N 29°55' W 089°57'1 1.3
2015-May-21 23:31N 29°55' W 089°56'1 0.6
2015-May-21 22:17N 29°55' W 089°57'0 0.3
2015-May-21 20:30N 29°55' W 089°56'1 0.6
2015-May-21 19:28N 29°55' W 089°57'0 0.0
2015-May-21 02:23N 29°55' W 089°57'0 0.0
2015-May-21 01:26N 29°55' W 089°57'1 1.3
2015-May-21 00:21N 29°56' W 089°58'2 2.0
2015-May-20 23:13N 29°55' W 089°56'0 0.0
2015-May-20 22:27N 29°55' W 089°56'0 0.1
2015-May-20 20:33N 29°55' W 089°56'0 0.1
2015-May-20 15:11N 29°55' W 089°56'4 5.9
2015-May-20 14:32N 29°57' W 090°00'4 1.4
2015-May-20 11:32N 29°55' W 089°56'0 0.0
2015-May-20 10:32N 29°55' W 089°56'0 0.0
2015-May-20 09:30N 29°55' W 089°56'0 0.4
2015-May-20 08:32N 29°55' W 089°56'0 0.2
2015-May-20 06:16N 29°55' W 089°56'3 1.6
2015-May-20 04:32N 29°56' W 089°59'2 2.0
2015-May-20 03:29N 29°55' W 089°56'0 0.0
2015-May-20 02:33N 29°55' W 089°56'1 0.3
2015-May-20 00:23N 29°55' W 089°56'0 0.0
2015-May-19 16:14N 29°55' W 089°56'0 0.0
2015-May-19 15:33N 29°55' W 089°56'0 0.0
2015-May-19 14:24N 29°55' W 089°56'0 0.0
2015-May-19 13:11N 29°55' W 089°56'0 0.0
2015-May-19 12:24N 29°55' W 089°56'0 0.0
2015-May-19 11:24N 29°55' W 089°56'0 0.0
2015-May-19 10:26N 29°55' W 089°56'0 0.0
2015-May-19 09:25N 29°55' W 089°56'0 0.0
2015-May-19 08:21N 29°55' W 089°56'0 0.0
2015-May-19 07:31N 29°55' W 089°56'0 0.0
2015-May-19 06:27N 29°55' W 089°56'0 0.0
2015-May-19 05:17N 29°55' W 089°56'0 0.0
2015-May-19 04:21N 29°55' W 089°56'0 0.0
2015-May-19 03:27N 29°55' W 089°56'0 0.0
2015-May-19 02:32N 29°55' W 089°56'0 0.0
2015-May-19 01:33N 29°55' W 089°56'0 0.0
2015-May-19 00:31N 29°55' W 089°56'0 0.0
2015-May-18 23:33N 29°55' W 089°56'0 0.0
2015-May-18 22:32N 29°55' W 089°56'0 0.0
2015-May-18 21:33N 29°55' W 089°56'0 0.0
2015-May-18 20:31N 29°55' W 089°56'0 0.0
2015-May-18 19:28N 29°55' W 089°56'0 0.0
2015-May-18 18:25N 29°55' W 089°56'0 0.0
2015-May-18 17:20N 29°55' W 089°56'0 0.0
2015-May-17 20:30N 29°55' W 089°56'0 0.0
2015-May-17 19:15N 29°55' W 089°56'0 0.0
2015-May-17 18:27N 29°55' W 089°56'0 0.0
2015-May-17 17:12N 29°55' W 089°56'0 0.0
2015-May-17 16:27N 29°55' W 089°56'0 0.0
2015-May-17 15:23N 29°55' W 089°56'0 0.0
2015-May-17 14:30N 29°55' W 089°56'0 0.0
2015-May-17 13:33N 29°55' W 089°56'0 0.0
2015-May-17 12:34N 29°55' W 089°56'0 0.0
2015-May-17 11:28N 29°55' W 089°56'  

Dump ship's entire track history